Mahan, West Virginia
Current Conditions -  °F | °C
As of 9:54 PM on Wednesday 22 Oct 2014 (Local Time) from KCRW Reporting Station
Overcast Overcast  
Wind Chill: 47°   Ceiling: 2500
Heat Index: 49°   Visibility: 10mi
Dew Point: 43°   Wind: 6mph
Humidity: 80%   Direction: 310°NW
Pressure: 30.22"   Gusts: NA
Location:  38.174°N, 81.3902°W
Report Text: KCRW 230154Z 31005KT 10SM SCT018 OVC025 09/06 A3022 RMK AO2 SLP235 T00940061
Loading
Personal Weather Stations






























Interactive Weather Map
Tropical Storm Tracking
New forecast layout! Learn more

10-Day Weather Forecast

Advertisements
Track Severe Weather on mobile